sensor_id;sensor_type;location;lat;lon;timestamp;pressure;altitude;pressure_sealevel;temperature;humidity
48644;BME280;34928;37.302;-121.984;2023-07-08T00:06:28;100595.0;;;32.64;23.43
48644;BME280;34928;37.302;-121.984;2023-07-08T00:16:32;100581.0;;;32.67;23.39
48644;BME280;34928;37.302;-121.984;2023-07-08T00:26:37;100579.0;;;32.63;23.42
48644;BME280;34928;37.302;-121.984;2023-07-08T00:36:42;100573.0;;;32.67;23.32
48644;BME280;34928;37.302;-121.984;2023-07-08T00:46:55;100572.0;;;32.69;23.40
48644;BME280;34928;37.302;-121.984;2023-07-08T00:57:03;100568.0;;;32.71;23.38
48644;BME280;34928;37.302;-121.984;2023-07-08T01:07:08;100560.0;;;32.71;23.38
48644;BME280;34928;37.302;-121.984;2023-07-08T01:17:13;100557.0;;;32.88;23.25
48644;BME280;34928;37.302;-121.984;2023-07-08T01:27:19;100557.0;;;32.81;23.26
48644;BME280;34928;37.302;-121.984;2023-07-08T01:37:24;100560.0;;;32.62;23.23
48644;BME280;34928;37.302;-121.984;2023-07-08T01:47:28;100557.0;;;32.84;23.20
48644;BME280;34928;37.302;-121.984;2023-07-08T01:57:33;100557.0;;;32.92;23.09
48644;BME280;34928;37.302;-121.984;2023-07-08T02:07:38;100565.0;;;32.87;22.96
48644;BME280;34928;37.302;-121.984;2023-07-08T02:17:42;100573.0;;;32.82;22.98
48644;BME280;34928;37.302;-121.984;2023-07-08T02:27:47;100576.0;;;32.78;23.00
48644;BME280;34928;37.302;-121.984;2023-07-08T02:37:53;100577.0;;;32.74;22.96
48644;BME280;34928;37.302;-121.984;2023-07-08T02:47:58;100582.0;;;32.97;22.92
48644;BME280;34928;37.302;-121.984;2023-07-08T02:58:03;100588.0;;;32.93;22.95
48644;BME280;34928;37.302;-121.984;2023-07-08T03:08:08;100588.0;;;32.83;23.11
48644;BME280;34928;37.302;-121.984;2023-07-08T03:18:12;100594.0;;;32.59;23.17
48644;BME280;34928;37.302;-121.984;2023-07-08T03:28:17;100597.0;;;32.83;23.10
48644;BME280;34928;37.302;-121.984;2023-07-08T03:38:22;100608.0;;;32.53;23.04
48644;BME280;34928;37.302;-121.984;2023-07-08T03:48:27;100609.0;;;32.50;23.09
48644;BME280;34928;37.302;-121.984;2023-07-08T03:58:32;100610.0;;;32.41;23.13
48644;BME280;34928;37.302;-121.984;2023-07-08T04:08:38;100613.0;;;32.36;23.12
48644;BME280;34928;37.302;-121.984;2023-07-08T04:18:43;100617.0;;;32.27;23.13
48644;BME280;34928;37.302;-121.984;2023-07-08T04:28:48;100621.0;;;32.49;23.14
48644;BME280;34928;37.302;-121.984;2023-07-08T04:38:52;100627.0;;;32.40;23.17
48644;BME280;34928;37.302;-121.984;2023-07-08T04:48:57;100629.0;;;32.03;23.20
48644;BME280;34928;37.302;-121.984;2023-07-08T04:59:02;100645.0;;;32.24;23.21
48644;BME280;34928;37.302;-121.984;2023-07-08T05:09:08;100657.0;;;31.88;23.20
48644;BME280;34928;37.302;-121.984;2023-07-08T05:19:13;100660.0;;;32.05;23.22
48644;BME280;34928;37.302;-121.984;2023-07-08T05:29:18;100661.0;;;32.07;23.32
48644;BME280;34928;37.302;-121.984;2023-07-08T05:39:22;100664.0;;;32.02;23.33
48644;BME280;34928;37.302;-121.984;2023-07-08T05:49:27;100660.0;;;31.94;23.33
48644;BME280;34928;37.302;-121.984;2023-07-08T05:59:33;100658.0;;;31.60;23.35
48644;BME280;34928;37.302;-121.984;2023-07-08T06:09:37;100658.0;;;31.45;23.41
48644;BME280;34928;37.302;-121.984;2023-07-08T06:19:43;100660.0;;;31.56;23.42
48644;BME280;34928;37.302;-121.984;2023-07-08T06:29:47;100668.0;;;31.42;23.45
48644;BME280;34928;37.302;-121.984;2023-07-08T06:39:52;100669.0;;;31.34;23.43
48644;BME280;34928;37.302;-121.984;2023-07-08T06:49:58;100667.0;;;31.23;23.43
48644;BME280;34928;37.302;-121.984;2023-07-08T07:00:03;100673.0;;;31.20;23.38
48644;BME280;34928;37.302;-121.984;2023-07-08T07:10:08;100685.0;;;31.12;23.37
48644;BME280;34928;37.302;-121.984;2023-07-08T07:20:13;100686.0;;;30.98;23.41
48644;BME280;34928;37.302;-121.984;2023-07-08T07:30:17;100689.0;;;31.36;23.43
48644;BME280;34928;37.302;-121.984;2023-07-08T07:40:22;100686.0;;;30.80;23.43
48644;BME280;34928;37.302;-121.984;2023-07-08T07:50:27;100686.0;;;31.11;23.49
48644;BME280;34928;37.302;-121.984;2023-07-08T08:00:33;100686.0;;;30.60;23.45
48644;BME280;34928;37.302;-121.984;2023-07-08T08:10:37;100691.0;;;30.69;23.52
48644;BME280;34928;37.302;-121.984;2023-07-08T08:20:43;100688.0;;;30.30;23.61
48644;BME280;34928;37.302;-121.984;2023-07-08T08:30:49;100689.0;;;30.41;23.68
48644;BME280;34928;37.302;-121.984;2023-07-08T08:40:53;100691.0;;;30.40;23.64
48644;BME280;34928;37.302;-121.984;2023-07-08T08:50:59;100696.0;;;30.45;23.73
48644;BME280;34928;37.302;-121.984;2023-07-08T09:01:12;100696.0;;;30.39;23.71
48644;BME280;34928;37.302;-121.984;2023-07-08T09:21:57;100690.0;;;30.05;23.90
48644;BME280;34928;37.302;-121.984;2023-07-08T09:32:14;100686.0;;;30.02;23.86
48644;BME280;34928;37.302;-121.984;2023-07-08T09:42:17;100679.0;;;29.97;23.82
48644;BME280;34928;37.302;-121.984;2023-07-08T09:52:23;100676.0;;;29.83;23.89
48644;BME280;34928;37.302;-121.984;2023-07-08T10:02:30;100677.0;;;29.68;23.96
48644;BME280;34928;37.302;-121.984;2023-07-08T10:12:38;100669.0;;;29.56;24.02
48644;BME280;34928;37.302;-121.984;2023-07-08T10:22:52;100678.0;;;29.78;23.95
48644;BME280;34928;37.302;-121.984;2023-07-08T10:33:16;100686.0;;;29.46;23.96
48644;BME280;34928;37.302;-121.984;2023-07-08T10:43:41;100688.0;;;29.27;24.04
48644;BME280;34928;37.302;-121.984;2023-07-08T10:53:58;100693.0;;;29.36;24.08
48644;BME280;34928;37.302;-121.984;2023-07-08T11:04:19;100690.0;;;29.32;24.04
48644;BME280;34928;37.302;-121.984;2023-07-08T11:14:30;100693.0;;;29.55;23.99
48644;BME280;34928;37.302;-121.984;2023-07-08T11:24:42;100695.0;;;29.37;24.12
48644;BME280;34928;37.302;-121.984;2023-07-08T11:34:50;100703.0;;;29.07;24.07
48644;BME280;34928;37.302;-121.984;2023-07-08T11:44:59;100711.0;;;29.20;24.12
48644;BME280;34928;37.302;-121.984;2023-07-08T11:55:13;100724.0;;;28.86;24.14
48644;BME280;34928;37.302;-121.984;2023-07-08T12:05:28;100729.0;;;29.08;24.10
48644;BME280;34928;37.302;-121.984;2023-07-08T12:15:34;100734.0;;;28.87;24.21
48644;BME280;34928;37.302;-121.984;2023-07-08T12:25:37;100735.0;;;28.61;24.14
48644;BME280;34928;37.302;-121.984;2023-07-08T12:35:43;100736.0;;;28.68;24.26
48644;BME280;34928;37.302;-121.984;2023-07-08T12:45:48;100737.0;;;28.56;24.30
48644;BME280;34928;37.302;-121.984;2023-07-08T12:55:54;100744.0;;;28.69;24.35
48644;BME280;34928;37.302;-121.984;2023-07-08T13:05:58;100754.0;;;28.45;24.27
48644;BME280;34928;37.302;-121.984;2023-07-08T13:16:09;100760.0;;;28.45;24.18
48644;BME280;34928;37.302;-121.984;2023-07-08T13:26:14;100768.0;;;28.37;24.19
48644;BME280;34928;37.302;-121.984;2023-07-08T13:36:32;100769.0;;;28.48;24.25
48644;BME280;34928;37.302;-121.984;2023-07-08T13:46:45;100771.0;;;28.20;24.21
48644;BME280;34928;37.302;-121.984;2023-07-08T13:56:54;100768.0;;;28.31;24.27
48644;BME280;34928;37.302;-121.984;2023-07-08T14:06:58;100768.0;;;28.06;24.26
48644;BME280;34928;37.302;-121.984;2023-07-08T14:17:03;100770.0;;;28.30;24.19
48644;BME280;34928;37.302;-121.984;2023-07-08T14:27:09;100778.0;;;28.04;24.19
48644;BME280;34928;37.302;-121.984;2023-07-08T14:37:14;100781.0;;;28.24;24.18
48644;BME280;34928;37.302;-121.984;2023-07-08T14:47:19;100793.0;;;28.32;24.06
48644;BME280;34928;37.302;-121.984;2023-07-08T14:57:30;100803.0;;;28.37;24.01
48644;BME280;34928;37.302;-121.984;2023-07-08T15:07:38;100806.0;;;28.11;24.03
48644;BME280;34928;37.302;-121.984;2023-07-08T15:17:43;100805.0;;;28.12;24.02
48644;BME280;34928;37.302;-121.984;2023-07-08T15:27:50;100806.0;;;28.15;23.99
48644;BME280;34928;37.302;-121.984;2023-07-08T15:37:58;100809.0;;;28.64;23.94
48644;BME280;34928;37.302;-121.984;2023-07-08T15:48:03;100814.0;;;28.53;23.86
48644;BME280;34928;37.302;-121.984;2023-07-08T15:58:18;100808.0;;;28.39;23.77
48644;BME280;34928;37.302;-121.984;2023-07-08T16:08:27;100807.0;;;28.88;23.74
48644;BME280;34928;37.302;-121.984;2023-07-08T16:18:33;100810.0;;;28.52;23.68
48644;BME280;34928;37.302;-121.984;2023-07-08T16:28:40;100811.0;;;28.83;23.63
48644;BME280;34928;37.302;-121.984;2023-07-08T16:38:43;100807.0;;;28.90;23.58
48644;BME280;34928;37.302;-121.984;2023-07-08T16:48:48;100802.0;;;28.73;23.56
48644;BME280;34928;37.302;-121.984;2023-07-08T16:58:52;100803.0;;;28.89;23.69
48644;BME280;34928;37.302;-121.984;2023-07-08T17:08:58;100792.0;;;28.87;23.56
48644;BME280;34928;37.302;-121.984;2023-07-08T17:19:02;100794.0;;;28.90;23.63
48644;BME280;34928;37.302;-121.984;2023-07-08T17:29:08;100786.0;;;29.01;23.57
48644;BME280;34928;37.302;-121.984;2023-07-08T17:39:13;100786.0;;;29.10;23.52
48644;BME280;34928;37.302;-121.984;2023-07-08T17:49:17;100781.0;;;29.21;23.50
48644;BME280;34928;37.302;-121.984;2023-07-08T17:59:22;100775.0;;;29.34;23.48
48644;BME280;34928;37.302;-121.984;2023-07-08T18:09:27;100774.0;;;29.19;23.45
48644;BME280;34928;37.302;-121.984;2023-07-08T18:19:32;100763.0;;;29.20;23.60
48644;BME280;34928;37.302;-121.984;2023-07-08T18:29:37;100763.0;;;29.53;23.62
48644;BME280;34928;37.302;-121.984;2023-07-08T18:39:43;100763.0;;;29.57;23.65
48644;BME280;34928;37.302;-121.984;2023-07-08T18:49:47;100754.0;;;29.68;23.55
48644;BME280;34928;37.302;-121.984;2023-07-08T18:59:52;100756.0;;;29.84;23.45
48644;BME280;34928;37.302;-121.984;2023-07-08T19:09:58;100746.0;;;29.94;23.39
48644;BME280;34928;37.302;-121.984;2023-07-08T19:20:03;100749.0;;;29.61;23.33
48644;BME280;34928;37.302;-121.984;2023-07-08T19:30:10;100741.0;;;29.90;23.32
48644;BME280;34928;37.302;-121.984;2023-07-08T19:40:20;100737.0;;;29.77;23.31
48644;BME280;34928;37.302;-121.984;2023-07-08T19:50:25;100729.0;;;30.01;23.38
48644;BME280;34928;37.302;-121.984;2023-07-08T20:00:38;100722.0;;;30.17;23.31
48644;BME280;34928;37.302;-121.984;2023-07-08T20:10:42;100718.0;;;30.03;23.29
48644;BME280;34928;37.302;-121.984;2023-07-08T20:20:47;100713.0;;;30.10;23.30
48644;BME280;34928;37.302;-121.984;2023-07-08T20:30:52;100714.0;;;30.12;23.34
48644;BME280;34928;37.302;-121.984;2023-07-08T20:40:58;100708.0;;;30.38;23.19
48644;BME280;34928;37.302;-121.984;2023-07-08T20:51:03;100693.0;;;30.41;23.20
48644;BME280;34928;37.302;-121.984;2023-07-08T21:01:07;100705.0;;;30.54;23.18
48644;BME280;34928;37.302;-121.984;2023-07-08T21:11:13;100695.0;;;30.67;23.14
48644;BME280;34928;37.302;-121.984;2023-07-08T21:21:18;100686.0;;;30.78;23.14
48644;BME280;34928;37.302;-121.984;2023-07-08T21:31:23;100682.0;;;30.83;23.20
48644;BME280;34928;37.302;-121.984;2023-07-08T21:41:30;100685.0;;;30.88;23.23
48644;BME280;34928;37.302;-121.984;2023-07-08T21:51:37;100677.0;;;30.46;23.29
48644;BME280;34928;37.302;-121.984;2023-07-08T22:01:42;100670.0;;;30.90;23.19
48644;BME280;34928;37.302;-121.984;2023-07-08T22:11:47;100661.0;;;30.71;23.19
48644;BME280;34928;37.302;-121.984;2023-07-08T22:21:52;100662.0;;;30.83;23.14
48644;BME280;34928;37.302;-121.984;2023-07-08T22:31:57;100662.0;;;30.85;23.16
48644;BME280;34928;37.302;-121.984;2023-07-08T22:42:03;100653.0;;;31.24;23.07
48644;BME280;34928;37.302;-121.984;2023-07-08T22:52:14;100650.0;;;31.14;22.96
48644;BME280;34928;37.302;-121.984;2023-07-08T23:02:22;100649.0;;;31.18;22.93
48644;BME280;34928;37.302;-121.984;2023-07-08T23:12:27;100646.0;;;31.25;22.93
48644;BME280;34928;37.302;-121.984;2023-07-08T23:22:33;100644.0;;;31.60;22.87
48644;BME280;34928;37.302;-121.984;2023-07-08T23:32:37;100637.0;;;31.36;22.93
48644;BME280;34928;37.302;-121.984;2023-07-08T23:42:44;100625.0;;;31.43;22.88
48644;BME280;34928;37.302;-121.984;2023-07-08T23:52:47;100632.0;;;31.50;22.85
